KMMT/MMT METAR and TAF weather

Enter ICAO airport designator
Station Type Date Time Source
KMMT METAR 2018/12/15 21:56 UTC NOAA

KMMT 152156Z AUTO 23003KT 10SM FEW032 OVC043 14/11 M RMK AO2 SLPNO T01440114 $


Station Type Date Time Source
KMMT Decoded METAR 2018/12/15 21:56 UTC NOAA

McEntire Air National Guard Weather Facility Base, SC, United States (KMMT) 33-55N 080-48W
Dec 15, 2018 - 04:56 PM EST / 2018.12.15 2156 UTC
Wind: from the SW (230 degrees) at 3 MPH (3 KT):0
Visibility: 10 mile(s):0
Sky conditions: overcast
Temperature: 57.9 F (14.4 C)
Dew Point: 52.5 F (11.4 C)
Relative Humidity: 82%
ob: KMMT 152156Z AUTO 23003KT 10SM FEW032 OVC043 14/11 M RMK AO2 SLPNO T01440114
cycle: 22

Station Type Date Time Source
KMMT TAF 2018/12/15 20:49 UTC NOAA

TAF
AMD KMMT 152042Z 1520/1622 26009KT 9999 SCT010 BKN025 QNH2983INS
BECMG 1521/1522 26009KT 9999 BKN025 QNH2980INS
BECMG 1604/1605 24006KT 9999 SCT030 QNH2991INS
BECMG 1607/1608 25006KT 9999 BKN015 QNH2991INS
BECMG 1614/1615 25012G18KT 9999 FEW015 QNH2988INS TX18/1620Z TN09/1610Z


Example: see airport list